sensor_id;sensor_type;location;lat;lon;timestamp;P1;durP1;ratioP1;P2;durP2;ratioP2
54191;SDS011;40101;53.002;6.488;2022-12-10T00:01:13;59.42;;;30.25;;
54191;SDS011;40101;53.002;6.488;2022-12-10T00:03:40;60.08;;;30.85;;
54191;SDS011;40101;53.002;6.488;2022-12-10T00:06:07;65.20;;;31.65;;
54191;SDS011;40101;53.002;6.488;2022-12-10T00:08:36;65.38;;;31.30;;
54191;SDS011;40101;53.002;6.488;2022-12-10T00:11:02;72.22;;;32.17;;
54191;SDS011;40101;53.002;6.488;2022-12-10T00:13:29;57.55;;;30.77;;
54191;SDS011;40101;53.002;6.488;2022-12-10T00:15:55;57.88;;;29.50;;
54191;SDS011;40101;53.002;6.488;2022-12-10T00:18:23;68.82;;;30.08;;
54191;SDS011;40101;53.002;6.488;2022-12-10T00:20:49;65.90;;;30.67;;
54191;SDS011;40101;53.002;6.488;2022-12-10T00:23:15;62.17;;;31.58;;
54191;SDS011;40101;53.002;6.488;2022-12-10T00:25:41;63.38;;;31.60;;
54191;SDS011;40101;53.002;6.488;2022-12-10T00:28:06;68.75;;;33.47;;
54191;SDS011;40101;53.002;6.488;2022-12-10T00:30:32;60.88;;;32.72;;
54191;SDS011;40101;53.002;6.488;2022-12-10T00:32:58;67.18;;;33.53;;
54191;SDS011;40101;53.002;6.488;2022-12-10T00:35:24;75.57;;;31.75;;
54191;SDS011;40101;53.002;6.488;2022-12-10T00:37:49;63.22;;;31.35;;
54191;SDS011;40101;53.002;6.488;2022-12-10T00:40:15;65.82;;;32.38;;
54191;SDS011;40101;53.002;6.488;2022-12-10T00:42:41;70.07;;;32.00;;
54191;SDS011;40101;53.002;6.488;2022-12-10T00:45:06;76.68;;;34.67;;
54191;SDS011;40101;53.002;6.488;2022-12-10T00:47:32;63.17;;;31.73;;
54191;SDS011;40101;53.002;6.488;2022-12-10T00:49:58;67.22;;;33.45;;
54191;SDS011;40101;53.002;6.488;2022-12-10T00:52:24;67.20;;;32.13;;
54191;SDS011;40101;53.002;6.488;2022-12-10T00:54:49;70.85;;;33.42;;
54191;SDS011;40101;53.002;6.488;2022-12-10T00:57:15;62.63;;;32.40;;
54191;SDS011;40101;53.002;6.488;2022-12-10T00:59:41;68.90;;;33.67;;
54191;SDS011;40101;53.002;6.488;2022-12-10T01:02:06;68.28;;;33.58;;
54191;SDS011;40101;53.002;6.488;2022-12-10T01:04:32;66.32;;;32.13;;
54191;SDS011;40101;53.002;6.488;2022-12-10T01:06:58;67.15;;;33.55;;
54191;SDS011;40101;53.002;6.488;2022-12-10T01:09:25;65.18;;;32.75;;
54191;SDS011;40101;53.002;6.488;2022-12-10T01:11:53;70.10;;;34.90;;
54191;SDS011;40101;53.002;6.488;2022-12-10T01:14:24;67.78;;;33.88;;
54191;SDS011;40101;53.002;6.488;2022-12-10T01:16:57;67.88;;;33.33;;
54191;SDS011;40101;53.002;6.488;2022-12-10T01:19:24;75.30;;;35.20;;
54191;SDS011;40101;53.002;6.488;2022-12-10T01:21:51;71.80;;;34.08;;
54191;SDS011;40101;53.002;6.488;2022-12-10T01:24:19;66.10;;;33.72;;
54191;SDS011;40101;53.002;6.488;2022-12-10T01:26:45;75.25;;;33.78;;
54191;SDS011;40101;53.002;6.488;2022-12-10T01:29:11;67.75;;;34.20;;
54191;SDS011;40101;53.002;6.488;2022-12-10T01:31:37;74.78;;;37.42;;
54191;SDS011;40101;53.002;6.488;2022-12-10T01:34:04;82.00;;;35.42;;
54191;SDS011;40101;53.002;6.488;2022-12-10T01:36:35;73.97;;;36.90;;
54191;SDS011;40101;53.002;6.488;2022-12-10T01:39:07;73.03;;;34.53;;
54191;SDS011;40101;53.002;6.488;2022-12-10T01:41:35;73.45;;;35.85;;
54191;SDS011;40101;53.002;6.488;2022-12-10T01:44:53;73.47;;;35.30;;
54191;SDS011;40101;53.002;6.488;2022-12-10T01:46:52;75.05;;;35.78;;
54191;SDS011;40101;53.002;6.488;2022-12-10T01:49:21;75.07;;;36.30;;
54191;SDS011;40101;53.002;6.488;2022-12-10T01:51:49;76.05;;;37.83;;
54191;SDS011;40101;53.002;6.488;2022-12-10T01:54:59;86.68;;;38.30;;
54191;SDS011;40101;53.002;6.488;2022-12-10T01:57:08;74.25;;;35.13;;
54191;SDS011;40101;53.002;6.488;2022-12-10T01:59:37;76.85;;;35.63;;
54191;SDS011;40101;53.002;6.488;2022-12-10T02:06:59;71.63;;;36.00;;
54191;SDS011;40101;53.002;6.488;2022-12-10T02:09:38;76.57;;;35.47;;
54191;SDS011;40101;53.002;6.488;2022-12-10T02:12:15;75.60;;;36.40;;
54191;SDS011;40101;53.002;6.488;2022-12-10T02:15:13;83.05;;;35.75;;
54191;SDS011;40101;53.002;6.488;2022-12-10T02:17:49;76.32;;;37.10;;
54191;SDS011;40101;53.002;6.488;2022-12-10T02:20:34;83.15;;;38.00;;
54191;SDS011;40101;53.002;6.488;2022-12-10T02:23:04;79.68;;;37.20;;
54191;SDS011;40101;53.002;6.488;2022-12-10T02:25:40;80.47;;;39.03;;
54191;SDS011;40101;53.002;6.488;2022-12-10T02:28:22;85.40;;;38.60;;
54191;SDS011;40101;53.002;6.488;2022-12-10T02:31:08;75.25;;;36.65;;
54191;SDS011;40101;53.002;6.488;2022-12-10T02:33:38;76.35;;;38.53;;
54191;SDS011;40101;53.002;6.488;2022-12-10T02:36:08;78.97;;;36.60;;
54191;SDS011;40101;53.002;6.488;2022-12-10T02:38:36;79.07;;;37.13;;
54191;SDS011;40101;53.002;6.488;2022-12-10T02:41:05;81.82;;;38.65;;
54191;SDS011;40101;53.002;6.488;2022-12-10T02:43:45;84.50;;;38.58;;
54191;SDS011;40101;53.002;6.488;2022-12-10T02:46:14;77.90;;;37.95;;
54191;SDS011;40101;53.002;6.488;2022-12-10T02:48:41;84.90;;;37.92;;
54191;SDS011;40101;53.002;6.488;2022-12-10T02:51:07;86.45;;;40.40;;
54191;SDS011;40101;53.002;6.488;2022-12-10T02:53:33;80.93;;;38.67;;
54191;SDS011;40101;53.002;6.488;2022-12-10T02:56:08;82.03;;;38.60;;
54191;SDS011;40101;53.002;6.488;2022-12-10T02:59:01;88.25;;;38.40;;
54191;SDS011;40101;53.002;6.488;2022-12-10T03:01:48;86.68;;;37.83;;
54191;SDS011;40101;53.002;6.488;2022-12-10T03:10:32;76.57;;;35.70;;
54191;SDS011;40101;53.002;6.488;2022-12-10T03:13:19;88.15;;;40.30;;
54191;SDS011;40101;53.002;6.488;2022-12-10T03:15:48;80.95;;;37.20;;
54191;SDS011;40101;53.002;6.488;2022-12-10T03:18:17;84.80;;;40.97;;
54191;SDS011;40101;53.002;6.488;2022-12-10T03:20:47;92.00;;;41.85;;
54191;SDS011;40101;53.002;6.488;2022-12-10T03:23:15;83.43;;;37.45;;
54191;SDS011;40101;53.002;6.488;2022-12-10T03:25:43;82.65;;;38.88;;
54191;SDS011;40101;53.002;6.488;2022-12-10T03:31:04;81.63;;;37.78;;
54191;SDS011;40101;53.002;6.488;2022-12-10T03:33:33;79.55;;;37.13;;
54191;SDS011;40101;53.002;6.488;2022-12-10T03:35:59;81.85;;;38.15;;
54191;SDS011;40101;53.002;6.488;2022-12-10T03:38:25;80.43;;;36.45;;
54191;SDS011;40101;53.002;6.488;2022-12-10T03:40:51;81.80;;;36.67;;
54191;SDS011;40101;53.002;6.488;2022-12-10T03:43:16;76.75;;;38.33;;
54191;SDS011;40101;53.002;6.488;2022-12-10T03:45:42;86.68;;;39.25;;
54191;SDS011;40101;53.002;6.488;2022-12-10T03:48:08;78.18;;;37.88;;
54191;SDS011;40101;53.002;6.488;2022-12-10T03:50:33;79.95;;;36.92;;
54191;SDS011;40101;53.002;6.488;2022-12-10T03:52:59;74.00;;;37.10;;
54191;SDS011;40101;53.002;6.488;2022-12-10T03:55:25;72.32;;;35.10;;
54191;SDS011;40101;53.002;6.488;2022-12-10T03:57:51;73.10;;;37.33;;
54191;SDS011;40101;53.002;6.488;2022-12-10T04:00:16;87.03;;;39.72;;
54191;SDS011;40101;53.002;6.488;2022-12-10T04:02:42;84.47;;;40.25;;
54191;SDS011;40101;53.002;6.488;2022-12-10T04:05:08;88.55;;;38.92;;
54191;SDS011;40101;53.002;6.488;2022-12-10T04:07:34;77.47;;;37.00;;
54191;SDS011;40101;53.002;6.488;2022-12-10T04:10:00;86.15;;;39.03;;
54191;SDS011;40101;53.002;6.488;2022-12-10T04:12:26;85.60;;;37.70;;
54191;SDS011;40101;53.002;6.488;2022-12-10T04:14:52;85.03;;;38.97;;
54191;SDS011;40101;53.002;6.488;2022-12-10T04:17:36;85.60;;;39.40;;
54191;SDS011;40101;53.002;6.488;2022-12-10T04:20:02;84.18;;;38.53;;
54191;SDS011;40101;53.002;6.488;2022-12-10T04:22:28;86.32;;;39.55;;
54191;SDS011;40101;53.002;6.488;2022-12-10T04:25:12;87.22;;;42.40;;
54191;SDS011;40101;53.002;6.488;2022-12-10T04:27:56;79.30;;;37.40;;
54191;SDS011;40101;53.002;6.488;2022-12-10T04:30:22;83.15;;;38.60;;
54191;SDS011;40101;53.002;6.488;2022-12-10T04:32:48;83.95;;;38.58;;
54191;SDS011;40101;53.002;6.488;2022-12-10T04:35:14;77.30;;;37.50;;
54191;SDS011;40101;53.002;6.488;2022-12-10T04:37:40;80.72;;;37.08;;
54191;SDS011;40101;53.002;6.488;2022-12-10T04:40:05;87.18;;;41.20;;
54191;SDS011;40101;53.002;6.488;2022-12-10T04:42:32;77.78;;;38.13;;
54191;SDS011;40101;53.002;6.488;2022-12-10T04:44:57;77.68;;;36.53;;
54191;SDS011;40101;53.002;6.488;2022-12-10T04:47:23;83.00;;;38.92;;
54191;SDS011;40101;53.002;6.488;2022-12-10T04:49:49;76.18;;;37.63;;
54191;SDS011;40101;53.002;6.488;2022-12-10T04:52:15;81.50;;;38.35;;
54191;SDS011;40101;53.002;6.488;2022-12-10T04:54:41;79.97;;;35.50;;
54191;SDS011;40101;53.002;6.488;2022-12-10T04:57:08;81.90;;;38.13;;
54191;SDS011;40101;53.002;6.488;2022-12-10T04:59:34;75.28;;;37.85;;
54191;SDS011;40101;53.002;6.488;2022-12-10T05:02:01;82.15;;;38.20;;
54191;SDS011;40101;53.002;6.488;2022-12-10T05:04:26;88.05;;;38.70;;
54191;SDS011;40101;53.002;6.488;2022-12-10T05:06:52;79.38;;;39.25;;
54191;SDS011;40101;53.002;6.488;2022-12-10T05:09:18;80.95;;;38.47;;
54191;SDS011;40101;53.002;6.488;2022-12-10T05:11:44;78.60;;;36.53;;
54191;SDS011;40101;53.002;6.488;2022-12-10T05:14:13;73.38;;;36.42;;
54191;SDS011;40101;53.002;6.488;2022-12-10T05:16:39;76.18;;;36.97;;
54191;SDS011;40101;53.002;6.488;2022-12-10T05:19:06;79.38;;;39.08;;
54191;SDS011;40101;53.002;6.488;2022-12-10T05:21:33;76.45;;;37.20;;
54191;SDS011;40101;53.002;6.488;2022-12-10T05:24:34;74.45;;;37.13;;
54191;SDS011;40101;53.002;6.488;2022-12-10T05:27:00;85.82;;;39.17;;
54191;SDS011;40101;53.002;6.488;2022-12-10T05:29:25;82.50;;;39.30;;
54191;SDS011;40101;53.002;6.488;2022-12-10T05:31:51;75.70;;;36.42;;
54191;SDS011;40101;53.002;6.488;2022-12-10T05:34:16;80.13;;;38.67;;
54191;SDS011;40101;53.002;6.488;2022-12-10T05:36:42;80.05;;;39.05;;
54191;SDS011;40101;53.002;6.488;2022-12-10T05:39:09;87.72;;;39.53;;
54191;SDS011;40101;53.002;6.488;2022-12-10T05:41:36;83.15;;;39.00;;
54191;SDS011;40101;53.002;6.488;2022-12-10T05:44:03;89.13;;;40.03;;
54191;SDS011;40101;53.002;6.488;2022-12-10T05:46:30;79.60;;;39.08;;
54191;SDS011;40101;53.002;6.488;2022-12-10T05:48:57;94.57;;;41.00;;
54191;SDS011;40101;53.002;6.488;2022-12-10T05:51:26;95.20;;;42.30;;
54191;SDS011;40101;53.002;6.488;2022-12-10T05:53:54;99.05;;;41.25;;
54191;SDS011;40101;53.002;6.488;2022-12-10T05:56:22;99.40;;;42.03;;
54191;SDS011;40101;53.002;6.488;2022-12-10T05:58:49;94.80;;;42.65;;
54191;SDS011;40101;53.002;6.488;2022-12-10T06:01:18;98.80;;;43.47;;
54191;SDS011;40101;53.002;6.488;2022-12-10T06:03:45;96.07;;;44.90;;
54191;SDS011;40101;53.002;6.488;2022-12-10T06:06:11;107.40;;;42.20;;
54191;SDS011;40101;53.002;6.488;2022-12-10T06:08:38;97.93;;;43.58;;
54191;SDS011;40101;53.002;6.488;2022-12-10T06:11:05;96.63;;;43.40;;
54191;SDS011;40101;53.002;6.488;2022-12-10T06:13:32;96.55;;;42.13;;
54191;SDS011;40101;53.002;6.488;2022-12-10T06:15:59;101.15;;;44.53;;
54191;SDS011;40101;53.002;6.488;2022-12-10T06:18:28;94.97;;;41.38;;
54191;SDS011;40101;53.002;6.488;2022-12-10T06:20:54;99.60;;;44.20;;
54191;SDS011;40101;53.002;6.488;2022-12-10T06:23:19;105.32;;;41.60;;
54191;SDS011;40101;53.002;6.488;2022-12-10T06:25:45;103.60;;;44.90;;
54191;SDS011;40101;53.002;6.488;2022-12-10T06:28:10;107.13;;;45.13;;
54191;SDS011;40101;53.002;6.488;2022-12-10T06:30:36;105.93;;;43.22;;
54191;SDS011;40101;53.002;6.488;2022-12-10T06:33:02;109.40;;;45.20;;
54191;SDS011;40101;53.002;6.488;2022-12-10T06:35:28;111.13;;;44.60;;
54191;SDS011;40101;53.002;6.488;2022-12-10T06:37:54;142.13;;;43.03;;
54191;SDS011;40101;53.002;6.488;2022-12-10T06:40:19;126.25;;;42.08;;
54191;SDS011;40101;53.002;6.488;2022-12-10T06:42:45;105.78;;;42.38;;
54191;SDS011;40101;53.002;6.488;2022-12-10T06:45:11;116.40;;;42.65;;
54191;SDS011;40101;53.002;6.488;2022-12-10T06:47:37;126.90;;;44.95;;
54191;SDS011;40101;53.002;6.488;2022-12-10T06:50:03;115.45;;;44.15;;
54191;SDS011;40101;53.002;6.488;2022-12-10T06:52:29;133.75;;;44.35;;
54191;SDS011;40101;53.002;6.488;2022-12-10T06:54:54;124.18;;;44.53;;
54191;SDS011;40101;53.002;6.488;2022-12-10T06:57:20;125.38;;;44.05;;
54191;SDS011;40101;53.002;6.488;2022-12-10T06:59:46;105.40;;;40.80;;
54191;SDS011;40101;53.002;6.488;2022-12-10T07:02:12;125.45;;;40.05;;
54191;SDS011;40101;53.002;6.488;2022-12-10T07:04:38;132.30;;;39.92;;
54191;SDS011;40101;53.002;6.488;2022-12-10T07:07:04;121.00;;;40.53;;
54191;SDS011;40101;53.002;6.488;2022-12-10T07:09:32;139.27;;;44.00;;
54191;SDS011;40101;53.002;6.488;2022-12-10T07:11:58;125.65;;;44.20;;
54191;SDS011;40101;53.002;6.488;2022-12-10T07:14:24;127.53;;;45.13;;
54191;SDS011;40101;53.002;6.488;2022-12-10T07:16:49;130.35;;;42.00;;
54191;SDS011;40101;53.002;6.488;2022-12-10T07:19:15;118.50;;;40.78;;
54191;SDS011;40101;53.002;6.488;2022-12-10T07:21:41;141.00;;;44.58;;
54191;SDS011;40101;53.002;6.488;2022-12-10T07:24:10;135.35;;;41.65;;
54191;SDS011;40101;53.002;6.488;2022-12-10T07:26:40;137.27;;;42.33;;
54191;SDS011;40101;53.002;6.488;2022-12-10T07:29:09;124.78;;;40.85;;
54191;SDS011;40101;53.002;6.488;2022-12-10T07:31:38;119.95;;;40.13;;
54191;SDS011;40101;53.002;6.488;2022-12-10T07:34:04;123.20;;;40.88;;
54191;SDS011;40101;53.002;6.488;2022-12-10T07:36:30;153.00;;;40.95;;
54191;SDS011;40101;53.002;6.488;2022-12-10T07:38:56;166.13;;;42.53;;
54191;SDS011;40101;53.002;6.488;2022-12-10T07:41:22;137.40;;;40.08;;
54191;SDS011;40101;53.002;6.488;2022-12-10T07:43:48;136.80;;;41.75;;
54191;SDS011;40101;53.002;6.488;2022-12-10T07:46:15;103.03;;;40.40;;
54191;SDS011;40101;53.002;6.488;2022-12-10T07:48:48;110.57;;;40.63;;
54191;SDS011;40101;53.002;6.488;2022-12-10T07:51:15;130.68;;;44.45;;
54191;SDS011;40101;53.002;6.488;2022-12-10T07:53:42;140.57;;;44.65;;
54191;SDS011;40101;53.002;6.488;2022-12-10T07:56:08;133.95;;;45.47;;
54191;SDS011;40101;53.002;6.488;2022-12-10T07:58:34;117.20;;;43.38;;
54191;SDS011;40101;53.002;6.488;2022-12-10T08:01:07;119.68;;;45.40;;
54191;SDS011;40101;53.002;6.488;2022-12-10T08:03:37;117.63;;;47.63;;
54191;SDS011;40101;53.002;6.488;2022-12-10T08:06:03;170.82;;;48.17;;
54191;SDS011;40101;53.002;6.488;2022-12-10T08:08:32;111.63;;;45.05;;
54191;SDS011;40101;53.002;6.488;2022-12-10T08:10:59;120.00;;;45.33;;
54191;SDS011;40101;53.002;6.488;2022-12-10T08:13:25;106.63;;;43.17;;
54191;SDS011;40101;53.002;6.488;2022-12-10T08:16:00;115.20;;;43.90;;
54191;SDS011;40101;53.002;6.488;2022-12-10T08:21:11;100.90;;;41.35;;
54191;SDS011;40101;53.002;6.488;2022-12-10T08:23:46;114.30;;;44.45;;
54191;SDS011;40101;53.002;6.488;2022-12-10T08:26:13;121.50;;;46.42;;
54191;SDS011;40101;53.002;6.488;2022-12-10T08:28:41;122.40;;;48.35;;
54191;SDS011;40101;53.002;6.488;2022-12-10T08:31:08;110.18;;;46.08;;
54191;SDS011;40101;53.002;6.488;2022-12-10T08:33:38;107.80;;;44.05;;
54191;SDS011;40101;53.002;6.488;2022-12-10T08:36:05;121.72;;;48.67;;
54191;SDS011;40101;53.002;6.488;2022-12-10T08:38:35;134.45;;;48.30;;
54191;SDS011;40101;53.002;6.488;2022-12-10T08:44:08;103.75;;;44.50;;
54191;SDS011;40101;53.002;6.488;2022-12-10T08:46:37;100.88;;;43.97;;
54191;SDS011;40101;53.002;6.488;2022-12-10T08:49:09;107.15;;;45.22;;
54191;SDS011;40101;53.002;6.488;2022-12-10T08:54:23;119.72;;;45.55;;
54191;SDS011;40101;53.002;6.488;2022-12-10T08:56:49;110.50;;;46.35;;
54191;SDS011;40101;53.002;6.488;2022-12-10T09:05:20;110.90;;;45.30;;
54191;SDS011;40101;53.002;6.488;2022-12-10T09:07:54;109.45;;;43.13;;
54191;SDS011;40101;53.002;6.488;2022-12-10T09:10:29;120.57;;;45.75;;
54191;SDS011;40101;53.002;6.488;2022-12-10T09:12:55;120.30;;;44.90;;
54191;SDS011;40101;53.002;6.488;2022-12-10T09:15:21;113.72;;;46.17;;
54191;SDS011;40101;53.002;6.488;2022-12-10T09:17:46;100.95;;;43.60;;
54191;SDS011;40101;53.002;6.488;2022-12-10T09:20:14;114.15;;;43.38;;
54191;SDS011;40101;53.002;6.488;2022-12-10T09:22:40;106.78;;;43.95;;
54191;SDS011;40101;53.002;6.488;2022-12-10T09:25:06;107.68;;;44.15;;
54191;SDS011;40101;53.002;6.488;2022-12-10T09:27:34;116.18;;;51.05;;
54191;SDS011;40101;53.002;6.488;2022-12-10T09:30:00;111.18;;;45.13;;
54191;SDS011;40101;53.002;6.488;2022-12-10T09:32:26;115.78;;;52.58;;
54191;SDS011;40101;53.002;6.488;2022-12-10T09:34:52;113.63;;;49.78;;
54191;SDS011;40101;53.002;6.488;2022-12-10T09:37:18;110.70;;;46.35;;
54191;SDS011;40101;53.002;6.488;2022-12-10T09:39:44;107.43;;;44.83;;
54191;SDS011;40101;53.002;6.488;2022-12-10T09:45:26;99.95;;;43.47;;
54191;SDS011;40101;53.002;6.488;2022-12-10T09:48:02;109.50;;;46.00;;
54191;SDS011;40101;53.002;6.488;2022-12-10T09:50:48;111.85;;;45.10;;
54191;SDS011;40101;53.002;6.488;2022-12-10T09:53:30;107.60;;;43.38;;
54191;SDS011;40101;53.002;6.488;2022-12-10T09:55:56;104.80;;;43.28;;
54191;SDS011;40101;53.002;6.488;2022-12-10T09:58:24;113.05;;;47.30;;
54191;SDS011;40101;53.002;6.488;2022-12-10T10:00:54;111.43;;;42.95;;
54191;SDS011;40101;53.002;6.488;2022-12-10T10:03:25;106.97;;;44.78;;
54191;SDS011;40101;53.002;6.488;2022-12-10T10:05:51;107.45;;;43.42;;
54191;SDS011;40101;53.002;6.488;2022-12-10T10:10:47;91.32;;;40.35;;
54191;SDS011;40101;53.002;6.488;2022-12-10T10:13:34;102.80;;;42.33;;
54191;SDS011;40101;53.002;6.488;2022-12-10T10:19:04;102.35;;;45.85;;
54191;SDS011;40101;53.002;6.488;2022-12-10T10:21:37;105.25;;;44.50;;
54191;SDS011;40101;53.002;6.488;2022-12-10T10:24:05;91.25;;;38.30;;
54191;SDS011;40101;53.002;6.488;2022-12-10T10:26:32;95.18;;;40.00;;
54191;SDS011;40101;53.002;6.488;2022-12-10T10:29:02;98.25;;;39.10;;
54191;SDS011;40101;53.002;6.488;2022-12-10T10:31:31;97.28;;;41.60;;
54191;SDS011;40101;53.002;6.488;2022-12-10T10:34:00;102.28;;;41.90;;
54191;SDS011;40101;53.002;6.488;2022-12-10T10:36:35;87.90;;;37.08;;
54191;SDS011;40101;53.002;6.488;2022-12-10T10:41:50;90.00;;;36.28;;
54191;SDS011;40101;53.002;6.488;2022-12-10T10:44:21;83.47;;;35.20;;
54191;SDS011;40101;53.002;6.488;2022-12-10T10:46:48;84.90;;;36.65;;
54191;SDS011;40101;53.002;6.488;2022-12-10T10:49:24;94.38;;;39.70;;
54191;SDS011;40101;53.002;6.488;2022-12-10T10:52:12;91.22;;;41.03;;
54191;SDS011;40101;53.002;6.488;2022-12-10T10:54:41;93.30;;;36.80;;
54191;SDS011;40101;53.002;6.488;2022-12-10T11:02:47;75.82;;;33.70;;
54191;SDS011;40101;53.002;6.488;2022-12-10T11:05:24;66.60;;;31.02;;
54191;SDS011;40101;53.002;6.488;2022-12-10T11:07:59;67.68;;;31.95;;
54191;SDS011;40101;53.002;6.488;2022-12-10T11:13:19;79.55;;;36.72;;
54191;SDS011;40101;53.002;6.488;2022-12-10T11:15:54;75.88;;;36.13;;
54191;SDS011;40101;53.002;6.488;2022-12-10T11:18:41;74.35;;;33.38;;
54191;SDS011;40101;53.002;6.488;2022-12-10T11:21:17;85.13;;;37.35;;
54191;SDS011;40101;53.002;6.488;2022-12-10T11:23:47;80.53;;;36.80;;
54191;SDS011;40101;53.002;6.488;2022-12-10T11:34:41;87.10;;;38.33;;
54191;SDS011;40101;53.002;6.488;2022-12-10T11:37:39;83.38;;;35.85;;
54191;SDS011;40101;53.002;6.488;2022-12-10T11:51:40;88.55;;;39.47;;
54191;SDS011;40101;53.002;6.488;2022-12-10T11:54:40;74.25;;;34.40;;
54191;SDS011;40101;53.002;6.488;2022-12-10T11:57:50;71.55;;;31.55;;
54191;SDS011;40101;53.002;6.488;2022-12-10T12:00:26;81.80;;;35.00;;
54191;SDS011;40101;53.002;6.488;2022-12-10T12:03:07;84.15;;;36.38;;
54191;SDS011;40101;53.002;6.488;2022-12-10T12:13:49;91.70;;;40.50;;
54191;SDS011;40101;53.002;6.488;2022-12-10T12:16:33;83.03;;;36.97;;
54191;SDS011;40101;53.002;6.488;2022-12-10T12:19:07;76.18;;;37.25;;
54191;SDS011;40101;53.002;6.488;2022-12-10T12:21:47;79.53;;;33.05;;
54191;SDS011;40101;53.002;6.488;2022-12-10T12:24:33;75.43;;;32.83;;
54191;SDS011;40101;53.002;6.488;2022-12-10T12:29:33;80.47;;;32.28;;
54191;SDS011;40101;53.002;6.488;2022-12-10T12:32:17;74.10;;;31.08;;
54191;SDS011;40101;53.002;6.488;2022-12-10T12:34:56;79.80;;;32.63;;
54191;SDS011;40101;53.002;6.488;2022-12-10T12:37:39;62.83;;;25.10;;
54191;SDS011;40101;53.002;6.488;2022-12-10T12:40:47;75.70;;;33.88;;
54191;SDS011;40101;53.002;6.488;2022-12-10T12:43:15;77.55;;;34.63;;
54191;SDS011;40101;53.002;6.488;2022-12-10T12:45:45;75.40;;;35.20;;
54191;SDS011;40101;53.002;6.488;2022-12-10T12:51:03;76.82;;;33.38;;
54191;SDS011;40101;53.002;6.488;2022-12-10T12:53:34;69.43;;;31.65;;
54191;SDS011;40101;53.002;6.488;2022-12-10T12:56:23;78.80;;;34.25;;
54191;SDS011;40101;53.002;6.488;2022-12-10T12:59:32;71.90;;;31.33;;
54191;SDS011;40101;53.002;6.488;2022-12-10T13:13:35;71.07;;;32.08;;
54191;SDS011;40101;53.002;6.488;2022-12-10T13:19:30;74.20;;;33.72;;
54191;SDS011;40101;53.002;6.488;2022-12-10T13:22:09;75.97;;;33.17;;
54191;SDS011;40101;53.002;6.488;2022-12-10T13:25:18;69.38;;;31.83;;
54191;SDS011;40101;53.002;6.488;2022-12-10T13:39:38;75.95;;;33.15;;
54191;SDS011;40101;53.002;6.488;2022-12-10T13:45:47;81.28;;;35.05;;
54191;SDS011;40101;53.002;6.488;2022-12-10T13:48:41;80.50;;;33.58;;
54191;SDS011;40101;53.002;6.488;2022-12-10T13:59:59;83.22;;;33.58;;
54191;SDS011;40101;53.002;6.488;2022-12-10T14:05:27;80.68;;;32.97;;
54191;SDS011;40101;53.002;6.488;2022-12-10T14:08:00;78.47;;;34.80;;
54191;SDS011;40101;53.002;6.488;2022-12-10T14:10:36;81.32;;;33.38;;
54191;SDS011;40101;53.002;6.488;2022-12-10T14:13:06;76.32;;;33.50;;
54191;SDS011;40101;53.002;6.488;2022-12-10T14:15:43;89.18;;;36.13;;
54191;SDS011;40101;53.002;6.488;2022-12-10T14:18:23;88.53;;;34.80;;
54191;SDS011;40101;53.002;6.488;2022-12-10T14:21:10;90.60;;;34.30;;
54191;SDS011;40101;53.002;6.488;2022-12-10T14:36:03;97.20;;;38.92;;
54191;SDS011;40101;53.002;6.488;2022-12-10T14:40:04;96.38;;;37.05;;
54191;SDS011;40101;53.002;6.488;2022-12-10T14:42:12;90.00;;;35.55;;
54191;SDS011;40101;53.002;6.488;2022-12-10T14:45:46;90.50;;;34.70;;
54191;SDS011;40101;53.002;6.488;2022-12-10T14:48:22;100.15;;;36.97;;
54191;SDS011;40101;53.002;6.488;2022-12-10T14:50:48;98.88;;;39.15;;
54191;SDS011;40101;53.002;6.488;2022-12-10T14:53:16;103.55;;;38.90;;
54191;SDS011;40101;53.002;6.488;2022-12-10T14:55:49;98.32;;;37.88;;
54191;SDS011;40101;53.002;6.488;2022-12-10T14:58:24;100.05;;;38.63;;
54191;SDS011;40101;53.002;6.488;2022-12-10T15:00:57;105.47;;;38.50;;
54191;SDS011;40101;53.002;6.488;2022-12-10T15:03:27;104.50;;;39.05;;
54191;SDS011;40101;53.002;6.488;2022-12-10T15:05:57;95.38;;;38.28;;
54191;SDS011;40101;53.002;6.488;2022-12-10T15:08:26;102.35;;;38.38;;
54191;SDS011;40101;53.002;6.488;2022-12-10T15:10:57;105.65;;;40.03;;
54191;SDS011;40101;53.002;6.488;2022-12-10T15:15:56;133.05;;;43.42;;
54191;SDS011;40101;53.002;6.488;2022-12-10T15:18:31;114.38;;;42.30;;
54191;SDS011;40101;53.002;6.488;2022-12-10T15:21:09;122.75;;;41.70;;
54191;SDS011;40101;53.002;6.488;2022-12-10T15:23:44;114.78;;;41.70;;
54191;SDS011;40101;53.002;6.488;2022-12-10T15:26:15;118.25;;;40.33;;
54191;SDS011;40101;53.002;6.488;2022-12-10T15:28:46;119.57;;;40.97;;
54191;SDS011;40101;53.002;6.488;2022-12-10T15:31:14;114.65;;;36.58;;
54191;SDS011;40101;53.002;6.488;2022-12-10T15:33:49;116.07;;;37.40;;
54191;SDS011;40101;53.002;6.488;2022-12-10T15:46:04;112.30;;;34.38;;
54191;SDS011;40101;53.002;6.488;2022-12-10T15:48:30;102.22;;;33.83;;
54191;SDS011;40101;53.002;6.488;2022-12-10T15:50:55;148.38;;;39.55;;
54191;SDS011;40101;53.002;6.488;2022-12-10T15:53:27;166.80;;;40.95;;
54191;SDS011;40101;53.002;6.488;2022-12-10T15:55:59;163.43;;;40.97;;
54191;SDS011;40101;53.002;6.488;2022-12-10T15:58:25;178.18;;;43.58;;
54191;SDS011;40101;53.002;6.488;2022-12-10T16:00:51;169.95;;;41.80;;
54191;SDS011;40101;53.002;6.488;2022-12-10T16:03:16;148.70;;;38.65;;
54191;SDS011;40101;53.002;6.488;2022-12-10T16:05:44;137.23;;;38.30;;
54191;SDS011;40101;53.002;6.488;2022-12-10T16:10:52;157.35;;;40.15;;
54191;SDS011;40101;53.002;6.488;2022-12-10T16:13:23;147.35;;;37.78;;
54191;SDS011;40101;53.002;6.488;2022-12-10T16:15:53;114.63;;;36.20;;
54191;SDS011;40101;53.002;6.488;2022-12-10T16:18:22;139.88;;;38.95;;
54191;SDS011;40101;53.002;6.488;2022-12-10T16:20:48;144.80;;;38.50;;
54191;SDS011;40101;53.002;6.488;2022-12-10T16:23:14;134.18;;;38.83;;
54191;SDS011;40101;53.002;6.488;2022-12-10T16:25:40;137.48;;;39.50;;
54191;SDS011;40101;53.002;6.488;2022-12-10T16:28:10;154.75;;;43.45;;
54191;SDS011;40101;53.002;6.488;2022-12-10T16:30:41;151.00;;;42.85;;
54191;SDS011;40101;53.002;6.488;2022-12-10T16:33:08;133.40;;;43.10;;
54191;SDS011;40101;53.002;6.488;2022-12-10T16:35:34;130.57;;;42.60;;
54191;SDS011;40101;53.002;6.488;2022-12-10T16:38:00;152.32;;;43.58;;
54191;SDS011;40101;53.002;6.488;2022-12-10T16:40:26;150.90;;;42.85;;
54191;SDS011;40101;53.002;6.488;2022-12-10T16:42:53;150.52;;;42.25;;
54191;SDS011;40101;53.002;6.488;2022-12-10T16:48:02;154.85;;;42.10;;
54191;SDS011;40101;53.002;6.488;2022-12-10T16:50:28;160.90;;;45.72;;
54191;SDS011;40101;53.002;6.488;2022-12-10T16:52:55;149.98;;;41.92;;
54191;SDS011;40101;53.002;6.488;2022-12-10T16:55:22;178.13;;;45.13;;
54191;SDS011;40101;53.002;6.488;2022-12-10T16:57:51;172.98;;;45.05;;
54191;SDS011;40101;53.002;6.488;2022-12-10T17:00:19;181.30;;;45.78;;
54191;SDS011;40101;53.002;6.488;2022-12-10T17:02:47;158.90;;;45.25;;
54191;SDS011;40101;53.002;6.488;2022-12-10T17:05:16;178.32;;;46.20;;
54191;SDS011;40101;53.002;6.488;2022-12-10T17:07:55;195.85;;;48.28;;
54191;SDS011;40101;53.002;6.488;2022-12-10T17:10:23;168.18;;;45.13;;